Time;durP1;ratioP1;P1;durP2;ratioP2;P2;SDS_P1;SDS_P2;PMS_P1;PMS_P2;Temp;Humidity;BMP_temperature;BMP_pressure;BME280_temperature;BME280_humidity;BME280_pressure;Samples;Min_cycle;Max_cycle;Signal;HPM_P1;HPM_P2
2022/05/09 00:00:20;;;;;;;0.50;0.50;;;;;;;6.23;73.07;99360.84;4918457;29;20056;-85
2022/05/09 00:02:48;;;;;;;0.50;0.50;;;;;;;6.29;73.12;99370.75;4917429;29;20064;-83
2022/05/09 00:05:18;;;;;;;0.50;0.50;;;;;;;6.36;73.39;99381.47;4901182;29;20378;-85
2022/05/09 00:07:45;;;;;;;0.55;0.55;;;;;;;6.37;73.01;99387.66;4917606;29;20056;-85
2022/05/09 00:10:15;;;;;;;0.50;0.50;;;;;;;6.35;73.37;99397.75;4900948;29;20547;-85
2022/05/09 00:12:43;;;;;;;0.50;0.50;;;;;;;6.32;73.18;99390.13;4917448;29;20611;-85
2022/05/09 00:15:11;;;;;;;0.60;0.60;;;;;;;6.36;73.71;99381.47;4917330;29;20062;-85
2022/05/09 00:17:38;;;;;;;0.50;0.50;;;;;;;6.33;73.61;99376.53;4900348;29;20139;-84
2022/05/09 00:20:07;;;;;;;0.50;0.50;;;;;;;6.30;73.66;99374.25;4921239;29;20071;-84
2022/05/09 00:22:49;;;;;;;0.50;0.50;;;;;;;6.33;73.76;99376.53;4908324;29;20051;-84
2022/05/09 00:25:18;;;;;;;0.60;0.60;;;;;;;6.32;73.68;99379.41;4925039;29;20048;-85
2022/05/09 00:27:45;;;;;;;0.50;0.50;;;;;;;6.29;73.76;99377.97;4921092;29;20103;-85
2022/05/09 00:30:14;;;;;;;0.50;0.50;;;;;;;6.28;73.81;99377.16;4917296;29;20048;-84
2022/05/09 00:32:42;;;;;;;0.55;0.55;;;;;;;6.34;73.95;99380.03;4916733;29;20056;-84
2022/05/09 00:35:10;;;;;;;0.50;0.50;;;;;;;6.37;74.11;99393.00;4899317;29;20056;-84
2022/05/09 00:37:38;;;;;;;0.60;0.60;;;;;;;6.34;74.29;99391.56;4916394;29;20123;-85
2022/05/09 00:40:08;;;;;;;0.50;0.50;;;;;;;6.32;74.22;99388.25;4935652;29;20424;-85
2022/05/09 00:42:38;;;;;;;0.60;0.60;;;;;;;6.32;74.35;99390.13;4904209;29;20111;-86
2022/05/09 00:45:06;;;;;;;0.50;0.50;;;;;;;6.32;74.37;99396.31;4936917;29;20055;-84
2022/05/09 00:47:34;;;;;;;0.50;0.50;;;;;;;6.18;74.39;99375.88;4936231;29;20056;-85
2022/05/09 00:50:05;;;;;;;0.50;0.50;;;;;;;6.32;74.48;99396.31;4919451;29;20050;-85
2022/05/09 00:52:39;;;;;;;0.45;0.45;;;;;;;6.27;74.74;99390.75;4935479;29;20048;-85
2022/05/09 00:55:12;;;;;;;0.50;0.50;;;;;;;6.33;74.66;99391.75;4918453;29;20055;-84
2022/05/09 00:57:53;;;;;;;0.50;0.50;;;;;;;6.30;74.34;99379.59;4935321;29;20170;-84
2022/05/09 01:00:22;;;;;;;0.50;0.50;;;;;;;6.32;74.41;99382.91;4920043;29;20062;-85
2022/05/09 01:03:13;;;;;;;0.60;0.60;;;;;;;6.32;74.62;99384.75;4935249;29;20055;-83
2022/05/09 01:05:50;;;;;;;0.60;0.60;;;;;;;6.29;74.53;99383.31;4918046;29;20127;-84
2022/05/09 01:08:22;;;;;;;0.60;0.60;;;;;;;6.27;74.44;99388.06;4936329;29;20415;-85
2022/05/09 01:10:49;;;;;;;0.60;0.60;;;;;;;6.21;74.55;99375.50;4919164;29;20526;-83
2022/05/09 01:13:19;;;;;;;0.60;0.60;;;;;;;6.20;74.61;99382.72;4935164;29;20048;-85
2022/05/09 01:15:48;;;;;;;0.60;0.60;;;;;;;6.14;74.55;99372.00;4887128;29;20060;-85
2022/05/09 01:18:19;;;;;;;0.50;0.50;;;;;;;6.18;74.44;99381.25;4936245;29;20119;-85
2022/05/09 01:20:46;;;;;;;0.52;0.52;;;;;;;6.15;74.84;99382.50;4936425;29;20051;-84
2022/05/09 01:23:14;;;;;;;0.60;0.60;;;;;;;6.15;74.66;99381.66;4935708;29;20083;-84
2022/05/09 01:25:41;;;;;;;0.50;0.50;;;;;;;6.11;74.60;99377.78;4918375;29;20047;-85
2022/05/09 01:28:10;;;;;;;0.60;0.60;;;;;;;6.16;74.77;99375.28;4903404;29;20063;-85
2022/05/09 01:30:59;;;;;;;0.55;0.55;;;;;;;6.16;74.93;99386.00;4934882;29;20048;-86
2022/05/09 01:33:39;;;;;;;0.55;0.55;;;;;;;6.06;74.72;99375.69;4935917;29;20529;-83
2022/05/09 01:36:09;;;;;;;0.57;0.57;;;;;;;6.05;74.63;99382.94;4918758;29;20132;-85
2022/05/09 01:38:56;;;;;;;0.50;0.50;;;;;;;6.12;74.93;99379.41;4925599;29;20051;-84
2022/05/09 01:41:25;;;;;;;0.60;0.60;;;;;;;6.12;74.76;99379.41;4943566;29;20122;-84
2022/05/09 01:43:55;;;;;;;0.50;0.50;;;;;;;6.12;74.35;99377.53;4923748;29;20522;-85
2022/05/09 01:46:25;;;;;;;0.50;0.50;;;;;;;6.08;74.62;99384.38;4934913;29;20074;-85
2022/05/09 01:51:40;;;;;;;0.50;0.50;;;;;;;6.06;74.62;99383.75;4935115;29;20503;-83
2022/05/09 01:54:08;;;;;;;0.60;0.60;;;;;;;6.07;74.50;99396.91;4934995;29;20059;-84
2022/05/09 01:56:38;;;;;;;0.60;0.60;;;;;;;6.12;74.37;99398.97;4917794;29;20054;-84
2022/05/09 01:59:08;;;;;;;0.43;0.43;;;;;;;6.12;74.63;99395.50;4902852;29;20052;-84
2022/05/09 02:01:42;;;;;;;0.60;0.60;;;;;;;6.11;74.31;99405.38;4933621;29;20051;-84
2022/05/09 02:04:11;;;;;;;0.60;0.60;;;;;;;6.10;74.17;99402.91;4918118;29;20111;-84
2022/05/09 02:06:39;;;;;;;0.60;0.60;;;;;;;6.08;74.29;99401.25;4935213;29;20047;-84
2022/05/09 02:09:09;;;;;;;0.50;0.50;;;;;;;6.10;74.47;99403.72;4918497;29;20047;-83
2022/05/09 02:11:37;;;;;;;0.50;0.50;;;;;;;6.08;74.34;99395.09;4934504;29;20055;-84
2022/05/09 02:14:04;;;;;;;0.60;0.60;;;;;;;6.06;74.30;99403.31;4918059;29;20103;-84
2022/05/09 02:16:31;;;;;;;0.50;0.50;;;;;;;6.05;74.10;99399.00;4934735;29;20071;-83
2022/05/09 02:18:58;;;;;;;0.52;0.52;;;;;;;6.04;74.10;99393.84;4934173;29;20071;-84
2022/05/09 02:21:26;;;;;;;0.50;0.50;;;;;;;6.10;73.59;99397.53;4934136;29;20514;-85
2022/05/09 02:23:55;;;;;;;0.60;0.60;;;;;;;6.12;73.03;99390.13;4934749;29;20143;-84
2022/05/09 02:26:24;;;;;;;0.60;0.60;;;;;;;6.15;72.27;99395.06;4934692;29;20138;-84
2022/05/09 02:28:52;;;;;;;0.60;0.60;;;;;;;6.19;71.79;99397.13;4917323;29;20419;-85
2022/05/09 02:31:23;;;;;;;0.50;0.50;;;;;;;6.17;70.08;99390.34;4932865;29;20126;-84
2022/05/09 02:33:51;;;;;;;0.55;0.55;;;;;;;6.16;69.02;99389.50;4934522;29;20122;-84
2022/05/09 02:36:18;;;;;;;0.50;0.50;;;;;;;6.15;69.05;99379.00;4901701;29;20103;-83
2022/05/09 02:38:45;;;;;;;0.60;0.60;;;;;;;6.19;69.41;99383.72;4934017;29;20044;-84
2022/05/09 02:41:13;;;;;;;0.60;0.60;;;;;;;6.23;69.13;99386.84;4934282;29;20056;-84
2022/05/09 02:43:40;;;;;;;0.60;0.60;;;;;;;6.27;68.85;99393.41;4934311;29;20102;-82
2022/05/09 02:46:13;;;;;;;0.60;0.60;;;;;;;6.25;68.70;99379.41;4934702;29;20048;-83
2022/05/09 02:48:44;;;;;;;0.60;0.60;;;;;;;6.20;67.88;99388.09;4901200;29;20470;-82
2022/05/09 02:51:13;;;;;;;0.60;0.60;;;;;;;6.25;67.63;99388.28;4885895;29;20048;-82
2022/05/09 02:53:48;;;;;;;0.60;0.60;;;;;;;6.22;67.99;99386.00;4934080;29;20519;-81
2022/05/09 02:56:16;;;;;;;0.60;0.60;;;;;;;6.31;67.27;99396.53;4933856;29;20057;-83
2022/05/09 02:58:43;;;;;;;0.50;0.50;;;;;;;6.29;66.81;99394.03;4945599;29;20047;-81
2022/05/09 03:01:10;;;;;;;0.68;0.68;;;;;;;6.33;66.83;99395.28;4891915;29;20056;-82
2022/05/09 03:06:24;;;;;;;0.60;0.60;;;;;;;6.38;67.26;99390.13;4933577;29;20143;-82
2022/05/09 03:08:53;;;;;;;0.60;0.60;;;;;;;6.40;66.41;99393.41;4933490;29;20075;-82
2022/05/09 03:11:20;;;;;;;0.60;0.60;;;;;;;6.45;66.34;99400.81;4933536;29;20052;-82
2022/05/09 03:13:50;;;;;;;0.60;0.60;;;;;;;6.43;66.15;99398.38;4917015;29;20064;-82
2022/05/09 03:16:19;;;;;;;0.57;0.57;;;;;;;6.46;66.51;99402.50;4934346;29;20040;-84
2022/05/09 03:18:47;;;;;;;0.50;0.50;;;;;;;6.44;67.24;99405.38;4936453;29;20051;-82
2022/05/09 03:21:15;;;;;;;0.60;0.60;;;;;;;6.37;67.88;99401.88;4936994;29;20055;-81
2022/05/09 03:23:42;;;;;;;0.60;0.60;;;;;;;6.29;68.31;99400.22;4920019;29;20051;-82
2022/05/09 03:26:09;;;;;;;0.60;0.60;;;;;;;6.28;68.54;99406.63;4920179;29;20051;-83
2022/05/09 03:28:36;;;;;;;0.65;0.65;;;;;;;6.24;68.55;99409.94;4936802;29;20051;-82
2022/05/09 03:31:04;;;;;;;0.60;0.60;;;;;;;6.28;68.85;99408.50;4936647;29;20047;-82
2022/05/09 03:33:35;;;;;;;0.60;0.60;;;;;;;6.23;69.03;99413.66;4936932;29;20048;-81
2022/05/09 03:36:02;;;;;;;0.50;0.50;;;;;;;6.13;69.13;99403.34;4936469;29;20056;-81
2022/05/09 03:38:29;;;;;;;0.60;0.60;;;;;;;5.93;69.68;99414.00;4918896;29;20123;-82
2022/05/09 03:40:57;;;;;;;0.60;0.60;;;;;;;5.94;70.03;99415.66;4936477;29;20135;-82
2022/05/09 03:43:24;;;;;;;0.50;0.50;;;;;;;5.86;70.03;99410.47;4936590;29;20507;-82
2022/05/09 03:45:52;;;;;;;0.60;0.60;;;;;;;5.70;70.25;99397.47;4936468;29;20055;-82
2022/05/09 03:48:19;;;;;;;0.60;0.60;;;;;;;5.69;70.70;99417.25;4937206;29;20052;-82
2022/05/09 03:50:46;;;;;;;0.50;0.50;;;;;;;5.52;70.63;99398.88;4933380;29;20513;-81
2022/05/09 03:53:14;;;;;;;0.60;0.60;;;;;;;5.55;71.08;99417.22;4919985;29;20428;-83
2022/05/09 03:55:42;;;;;;;0.63;0.63;;;;;;;5.43;71.18;99408.94;4933101;29;20415;-81
2022/05/09 03:58:09;;;;;;;0.60;0.60;;;;;;;5.49;71.19;99417.19;4935554;29;20465;-82
2022/05/09 04:00:38;;;;;;;0.60;0.60;;;;;;;5.37;71.15;99408.94;4918183;29;20079;-82
2022/05/09 04:03:06;;;;;;;0.70;0.70;;;;;;;5.25;71.47;99394.47;4919237;29;20075;-83
2022/05/09 04:05:35;;;;;;;0.70;0.70;;;;;;;5.29;71.46;99412.63;4904050;29;20051;-82
2022/05/09 04:08:06;;;;;;;0.60;0.60;;;;;;;5.36;71.41;99424.16;4936342;29;20056;-82
2022/05/09 04:10:37;;;;;;;0.63;0.63;;;;;;;5.34;71.23;99436.94;4905666;29;20052;-82
2022/05/09 04:13:05;;;;;;;0.70;0.70;;;;;;;5.31;71.40;99429.28;4950410;29;20048;-82
2022/05/09 04:18:18;;;;;;;0.70;0.70;;;;;;;5.59;70.45;99431.84;4935898;29;20063;-82
2022/05/09 04:20:46;;;;;;;0.70;0.70;;;;;;;5.83;69.65;99432.31;4935868;29;20047;-82
2022/05/09 04:23:15;;;;;;;0.63;0.63;;;;;;;6.04;68.47;99426.00;4919101;29;20054;-82
2022/05/09 04:25:43;;;;;;;0.70;0.70;;;;;;;6.32;68.00;99423.09;4932340;29;20048;-81
2022/05/09 04:28:15;;;;;;;0.70;0.70;;;;;;;6.51;66.92;99434.88;4917934;29;20107;-81
2022/05/09 04:30:42;;;;;;;0.60;0.60;;;;;;;6.51;66.50;99433.00;4918947;29;20043;-81
2022/05/09 04:33:10;;;;;;;0.60;0.60;;;;;;;6.44;66.79;99426.81;4935630;29;20070;-82
2022/05/09 04:35:39;;;;;;;0.60;0.60;;;;;;;6.60;66.98;99425.56;4935571;29;20100;-82
2022/05/09 04:38:07;;;;;;;0.70;0.70;;;;;;;6.71;66.13;99443.72;4935638;29;20245;-82
2022/05/09 04:40:37;;;;;;;0.70;0.70;;;;;;;6.63;65.66;99408.22;4919304;29;20111;-83
2022/05/09 04:43:06;;;;;;;0.70;0.70;;;;;;;6.64;65.61;99442.06;4935724;29;20051;-82
2022/05/09 04:45:33;;;;;;;0.65;0.65;;;;;;;6.75;65.11;99446.78;4919454;29;20103;-83
2022/05/09 04:48:03;;;;;;;0.70;0.70;;;;;;;6.75;64.70;99445.97;4936207;29;20053;-83
2022/05/09 04:50:33;;;;;;;0.60;0.60;;;;;;;6.67;64.71;99450.53;4913612;29;20381;-83
2022/05/09 04:53:00;;;;;;;0.70;0.70;;;;;;;6.63;64.23;99445.78;4904874;29;20526;-83
2022/05/09 04:55:28;;;;;;;0.70;0.70;;;;;;;6.60;64.32;99447.03;4924920;29;20102;-83
2022/05/09 04:58:03;;;;;;;0.63;0.63;;;;;;;6.55;64.03;99444.13;4925963;29;20052;-84
2022/05/09 05:00:30;;;;;;;0.60;0.60;;;;;;;6.63;63.26;99435.88;4927599;29;20055;-83
2022/05/09 05:02:58;;;;;;;0.63;0.63;;;;;;;6.73;62.62;99436.28;4926548;29;20052;-86
2022/05/09 05:05:26;;;;;;;0.70;0.70;;;;;;;7.08;62.65;99451.28;4903606;29;20060;-88
2022/05/09 05:07:54;;;;;;;0.70;0.70;;;;;;;7.36;62.15;99441.03;4921970;29;20139;-86
2022/05/09 05:10:27;;;;;;;0.68;0.68;;;;;;;7.37;61.43;99423.09;4925695;29;20074;-87
2022/05/09 05:12:56;;;;;;;0.60;0.60;;;;;;;7.72;60.77;99450.41;4925402;29;20052;-85
2022/05/09 05:15:24;;;;;;;0.60;0.60;;;;;;;7.94;61.25;99456.25;4933337;29;20058;-86
2022/05/09 05:17:52;;;;;;;0.60;0.60;;;;;;;7.91;60.27;99448.63;4921443;29;20056;-87
2022/05/09 05:20:20;;;;;;;0.60;0.60;;;;;;;7.82;59.75;99445.38;4934333;29;20503;-86
2022/05/09 05:22:48;;;;;;;0.60;0.60;;;;;;;7.86;59.74;99461.06;4936453;29;20079;-89
2022/05/09 05:25:21;;;;;;;0.60;0.60;;;;;;;7.92;59.56;99458.31;4898488;29;20539;-92
2022/05/09 05:27:50;;;;;;;0.60;0.60;;;;;;;8.03;59.28;99454.97;4951675;29;20056;-88
2022/05/09 05:30:18;;;;;;;0.60;0.60;;;;;;;8.12;58.91;99454.69;4904168;29;20052;-86
2022/05/09 05:32:47;;;;;;;0.60;0.60;;;;;;;8.04;58.27;99455.78;4918475;29;20051;-85
2022/05/09 05:35:17;;;;;;;0.60;0.60;;;;;;;7.82;58.70;99464.19;4903818;29;20056;-87
2022/05/09 05:37:44;;;;;;;0.60;0.60;;;;;;;7.62;58.25;99455.38;4917193;29;20056;-84
2022/05/09 05:40:14;;;;;;;0.60;0.60;;;;;;;7.42;59.00;99454.66;4915813;29;20051;-87
2022/05/09 05:42:43;;;;;;;0.60;0.60;;;;;;;7.37;59.57;99471.44;4899192;29;20056;-85
2022/05/09 05:45:12;;;;;;;0.60;0.60;;;;;;;7.48;59.94;99464.56;4916336;29;20096;-87
2022/05/09 05:47:41;;;;;;;0.60;0.60;;;;;;;7.79;59.43;99474.53;4906429;29;20111;-85
2022/05/09 05:50:11;;;;;;;0.60;0.60;;;;;;;8.01;58.86;99477.72;4919623;29;20062;-86
2022/05/09 05:52:40;;;;;;;0.60;0.60;;;;;;;8.07;58.41;99484.91;4919891;29;20076;-87
2022/05/09 05:55:08;;;;;;;0.60;0.60;;;;;;;8.33;58.51;99483.09;4919548;29;20532;-85
2022/05/09 05:57:39;;;;;;;0.70;0.70;;;;;;;8.35;58.31;99471.06;4916110;29;20048;-85
2022/05/09 06:00:20;;;;;;;0.60;0.60;;;;;;;8.18;58.43;99470.78;4898914;29;20050;-85
2022/05/09 06:02:48;;;;;;;0.75;0.75;;;;;;;8.42;57.53;99489.88;4915404;29;20423;-85
2022/05/09 06:05:16;;;;;;;0.70;0.70;;;;;;;8.65;57.86;99489.28;4915879;29;20083;-86
2022/05/09 06:07:44;;;;;;;0.70;0.70;;;;;;;8.65;55.95;99484.72;4898649;29;20523;-87
2022/05/09 06:10:12;;;;;;;0.60;0.60;;;;;;;8.77;55.38;99484.84;4920272;29;20128;-86
2022/05/09 06:12:40;;;;;;;0.60;0.60;;;;;;;8.89;55.04;99493.00;4912853;29;20059;-85
2022/05/09 06:18:02;;;;;;;0.60;0.60;;;;;;;9.13;53.56;99487.81;4916394;29;20060;-88
2022/05/09 06:20:31;;;;;;;;;;;;;;;9.31;53.04;99493.19;4899686;29;20051;-86
2022/05/09 06:22:59;;;;;;;0.60;0.60;;;;;;;8.94;53.28;99478.88;4915659;29;20527;-87
2022/05/09 06:25:28;;;;;;;0.60;0.60;;;;;;;8.42;53.94;99473.75;4915811;29;20056;-86
2022/05/09 06:27:55;;;;;;;0.60;0.60;;;;;;;8.46;54.75;99502.69;4899758;29;20427;-87
2022/05/09 06:30:24;;;;;;;0.80;0.80;;;;;;;8.62;54.31;99495.94;4916024;29;20075;-87
2022/05/09 06:32:51;;;;;;;0.70;0.70;;;;;;;8.61;54.37;99493.47;4915514;29;20052;-87
2022/05/09 06:35:23;;;;;;;0.60;0.60;;;;;;;8.64;53.39;99491.16;4915572;29;20052;-86
2022/05/09 06:37:58;;;;;;;0.60;0.60;;;;;;;8.81;51.75;99493.28;4915808;29;20143;-87
2022/05/09 06:40:28;;;;;;;0.70;0.70;;;;;;;8.80;50.35;99505.09;4915425;29;20063;-87
2022/05/09 06:42:56;;;;;;;0.70;0.70;;;;;;;8.55;50.35;99492.47;4915978;29;20048;-87
2022/05/09 06:45:27;;;;;;;0.60;0.60;;;;;;;8.72;51.48;99495.44;4899015;29;20089;-87
2022/05/09 06:47:56;;;;;;;0.50;0.50;;;;;;;8.96;50.84;99503.69;4915481;29;20056;-88
2022/05/09 06:50:27;;;;;;;0.60;0.60;;;;;;;8.71;51.33;99496.50;4916529;29;20051;-87
2022/05/09 06:52:57;;;;;;;0.70;0.70;;;;;;;9.21;50.78;99506.34;4888055;29;20068;-87
2022/05/09 06:55:42;;;;;;;0.70;0.70;;;;;;;9.27;49.44;99497.41;4919256;29;20507;-88
2022/05/09 06:58:13;;;;;;;0.73;0.73;;;;;;;9.36;48.45;99482.56;4918973;29;20515;-87
2022/05/09 07:00:40;;;;;;;0.80;0.80;;;;;;;9.68;47.94;99495.88;4918590;29;20471;-87
2022/05/09 07:03:07;;;;;;;0.80;0.80;;;;;;;9.71;46.97;99490.03;4918338;29;20112;-88
2022/05/09 07:05:38;;;;;;;0.70;0.70;;;;;;;10.07;46.52;99486.41;4903337;29;20468;-87
2022/05/09 07:08:07;;;;;;;0.60;0.60;;;;;;;10.69;47.02;99496.94;4887680;29;20143;-85
2022/05/09 07:10:36;;;;;;;0.50;0.50;;;;;;;10.66;45.86;99491.16;4903223;29;20436;-86
2022/05/09 07:13:04;;;;;;;0.50;0.50;;;;;;;9.59;48.41;99495.34;4902032;29;20040;-86
2022/05/09 07:15:34;;;;;;;0.50;0.50;;;;;;;9.07;49.14;99490.34;4901720;29;20053;-86
2022/05/09 07:18:03;;;;;;;0.50;0.50;;;;;;;8.66;50.38;99507.91;4917811;29;20448;-85
2022/05/09 07:20:32;;;;;;;0.50;0.50;;;;;;;8.44;50.83;99514.69;4918262;29;20415;-86
2022/05/09 07:23:07;;;;;;;0.50;0.50;;;;;;;8.07;50.79;99495.66;4886142;29;20051;-86
2022/05/09 07:25:36;;;;;;;0.60;0.60;;;;;;;8.05;49.68;99486.97;4902036;29;20052;-87
2022/05/09 07:28:04;;;;;;;0.70;0.70;;;;;;;8.74;48.68;99492.53;4901082;29;20056;-86
2022/05/09 07:30:31;;;;;;;0.70;0.70;;;;;;;9.59;47.02;99487.25;4918355;29;20324;-86
2022/05/09 07:32:59;;;;;;;0.80;0.80;;;;;;;10.05;44.97;99479.59;4917986;29;20080;-86
2022/05/09 07:35:26;;;;;;;0.60;0.60;;;;;;;10.40;43.89;99494.03;4920110;29;20056;-86
2022/05/09 07:37:54;;;;;;;0.50;0.50;;;;;;;9.83;43.18;99504.38;4919606;29;20575;-88
2022/05/09 07:40:29;;;;;;;0.50;0.50;;;;;;;9.20;45.27;99518.19;4902874;29;20052;-87
2022/05/09 07:42:58;;;;;;;0.50;0.50;;;;;;;8.27;47.35;99510.84;4885615;29;20048;-87
2022/05/09 07:45:26;;;;;;;0.50;0.50;;;;;;;7.94;49.96;99518.06;4918373;29;20139;-88
2022/05/09 07:47:53;;;;;;;0.50;0.50;;;;;;;7.72;51.12;99525.63;4901006;29;20111;-88
2022/05/09 07:50:20;;;;;;;0.60;0.60;;;;;;;7.69;52.89;99509.91;4896935;29;20684;-87
2022/05/09 07:52:48;;;;;;;0.50;0.50;;;;;;;8.10;52.82;99522.13;4882010;29;20162;-87
2022/05/09 07:55:16;;;;;;;0.52;0.52;;;;;;;8.22;52.97;99511.50;4897042;29;20072;-86
2022/05/09 07:57:44;;;;;;;0.55;0.55;;;;;;;8.24;53.21;99502.19;4897776;29;20124;-86
2022/05/09 08:00:12;;;;;;;0.60;0.60;;;;;;;8.30;50.12;99489.72;4880968;29;20056;-87
2022/05/09 08:02:48;;;;;;;0.70;0.70;;;;;;;8.86;48.92;99504.19;4882532;29;20177;-87
2022/05/09 08:05:16;;;;;;;0.88;0.88;;;;;;;9.62;47.38;99496.75;4881477;29;20623;-88
2022/05/09 08:07:43;;;;;;;0.90;0.90;;;;;;;10.67;45.23;99482.84;4898129;29;20060;-85
2022/05/09 08:10:12;;;;;;;0.90;0.90;;;;;;;11.70;45.09;99486.72;4881559;29;20585;-87
2022/05/09 08:12:39;;;;;;;0.60;0.60;;;;;;;11.61;42.40;99476.50;4895981;29;20057;-87
2022/05/09 08:15:08;;;;;;;0.50;0.50;;;;;;;10.99;43.50;99496.81;4895839;29;20436;-87
2022/05/09 08:17:37;;;;;;;0.50;0.50;;;;;;;10.63;43.92;99485.19;4880612;29;20052;-87
2022/05/09 08:20:06;;;;;;;0.50;0.50;;;;;;;10.57;40.67;99501.47;4883623;29;20080;-87
2022/05/09 08:22:36;;;;;;;0.80;0.80;;;;;;;10.67;39.96;99485.53;4887885;29;20093;-86
2022/05/09 08:25:05;;;;;;;0.70;0.70;;;;;;;11.03;41.40;99494.47;4917767;29;20062;-85
2022/05/09 08:27:33;;;;;;;0.70;0.70;;;;;;;11.41;41.47;99493.94;4901055;29;20453;-85
2022/05/09 08:30:00;;;;;;;0.50;0.50;;;;;;;11.14;40.95;99504.47;4917223;29;20060;-86
2022/05/09 08:32:29;;;;;;;0.50;0.50;;;;;;;10.43;41.31;99530.53;4917234;29;20504;-86
2022/05/09 08:34:56;;;;;;;0.50;0.50;;;;;;;9.80;41.34;99517.47;4899928;29;20147;-87
2022/05/09 08:37:24;;;;;;;0.60;0.60;;;;;;;9.47;41.74;99510.63;4886296;29;20050;-86
2022/05/09 08:39:52;;;;;;;0.50;0.50;;;;;;;9.27;41.99;99519.75;4917895;29;20051;-88
2022/05/09 08:42:26;;;;;;;0.60;0.60;;;;;;;9.23;42.26;99505.09;4918510;29;20516;-87
2022/05/09 08:44:59;;;;;;;0.90;0.90;;;;;;;9.80;41.94;99514.78;4900276;29;20078;-87
2022/05/09 08:47:51;;;;;;;0.80;0.80;;;;;;;11.12;41.38;99517.38;4918719;29;20186;-87
2022/05/09 08:50:41;;;;;;;0.60;0.60;;;;;;;12.36;39.08;99503.41;4917496;29;20052;-87
2022/05/09 08:53:19;;;;;;;0.50;0.50;;;;;;;11.53;39.34;99520.16;4884357;29;20044;-87
2022/05/09 08:55:48;;;;;;;0.50;0.50;;;;;;;9.77;44.55;99532.22;4917518;29;20055;-87
2022/05/09 08:58:40;;;;;;;0.50;0.50;;;;;;;8.22;49.43;99571.47;4901534;29;20507;-86
2022/05/09 09:01:15;;;;;;;0.60;0.60;;;;;;;7.47;51.74;99562.25;4886368;29;20127;-87
2022/05/09 09:03:53;;;;;;;0.60;0.60;;;;;;;6.97;52.03;99565.47;4917149;29;20610;-87
2022/05/09 09:06:51;;;;;;;0.70;0.70;;;;;;;6.97;52.80;99568.13;4900825;29;20127;-86
2022/05/09 09:09:21;;;;;;;0.70;0.70;;;;;;;7.02;53.69;99579.06;4880283;29;20100;-87
2022/05/09 09:12:06;;;;;;;1.10;1.10;;;;;;;8.88;49.84;99572.09;4917731;29;20047;-88
2022/05/09 09:14:56;;;;;;;1.10;1.10;;;;;;;10.34;45.29;99564.31;4886082;29;20685;-87
2022/05/09 09:17:30;;;;;;;1.00;1.00;;;;;;;10.82;43.45;99556.09;4884788;29;20056;-86
2022/05/09 09:20:16;;;;;;;1.00;1.00;;;;;;;11.34;43.74;99562.69;4885010;29;20048;-84
2022/05/09 09:23:02;;;;;;;1.00;1.00;;;;;;;12.14;42.54;99561.97;4885046;29;20056;-89
2022/05/09 09:25:36;;;;;;;0.90;0.90;;;;;;;13.11;41.46;99543.84;4886250;29;20055;-86
2022/05/09 09:28:20;;;;;;;0.98;0.98;;;;;;;13.83;38.47;99540.28;4916005;29;20048;-87
2022/05/09 09:30:47;;;;;;;0.90;0.90;;;;;;;13.98;37.84;99536.94;4900794;29;20050;-87
2022/05/09 09:33:18;;;;;;;0.90;0.90;;;;;;;14.26;36.83;99546.75;4915646;29;20051;-86
2022/05/09 09:36:00;;;;;;;0.90;0.90;;;;;;;13.41;34.82;99538.91;4915845;29;20056;-85
2022/05/09 09:38:33;;;;;;;0.90;0.90;;;;;;;13.00;35.76;99551.84;4898842;29;20048;-86
2022/05/09 09:41:23;;;;;;;0.90;0.90;;;;;;;13.18;36.54;99539.09;4899024;29;20062;-87
2022/05/09 09:44:10;;;;;;;0.90;0.90;;;;;;;13.32;34.93;99540.44;4898552;29;20503;-86
2022/05/09 09:47:05;;;;;;;1.00;1.00;;;;;;;13.86;34.19;99554.16;4899100;29;20484;-85
2022/05/09 09:49:38;;;;;;;1.00;1.00;;;;;;;13.81;34.04;99559.50;4915335;29;20074;-86
2022/05/09 09:52:29;;;;;;;1.00;1.00;;;;;;;14.50;34.46;99552.66;4915475;29;20392;-87
2022/05/09 09:55:22;;;;;;;0.90;0.90;;;;;;;15.32;32.20;99554.19;4915506;29;20052;-87
2022/05/09 09:57:50;;;;;;;0.90;0.90;;;;;;;16.04;31.61;99558.09;4912126;29;20111;-86
2022/05/09 10:00:30;;;;;;;0.90;0.90;;;;;;;16.77;29.90;99568.06;4914979;29;20055;-86
2022/05/09 10:03:22;;;;;;;0.90;0.90;;;;;;;16.89;28.39;99541.38;4915191;29;20519;-87
2022/05/09 10:05:52;;;;;;;0.90;0.90;;;;;;;15.66;29.42;99533.97;4915279;29;20123;-86
2022/05/09 10:08:37;;;;;;;0.98;0.98;;;;;;;16.76;28.92;99562.88;4899757;29;20142;-86
2022/05/09 10:11:20;;;;;;;0.70;0.70;;;;;;;16.65;29.47;99559.31;4915052;29;20122;-86
2022/05/09 10:13:58;;;;;;;1.00;1.00;;;;;;;16.95;28.25;99541.38;4898495;29;20175;-85
2022/05/09 10:16:28;;;;;;;1.10;1.10;;;;;;;16.47;29.75;99556.03;4915468;29;20107;-86
2022/05/09 10:18:55;;;;;;;0.50;0.50;;;;;;;16.23;29.17;99544.00;4898030;29;20140;-86
2022/05/09 10:24:51;;;;;;;0.40;0.40;;;;;;;12.92;32.31;99556.84;4915482;29;20056;-88
2022/05/09 10:27:29;;;;;;;0.50;0.50;;;;;;;11.79;33.34;99562.03;4905423;29;20504;-84
2022/05/09 10:30:17;;;;;;;0.50;0.50;;;;;;;11.51;33.94;99560.91;4918770;29;20052;-86
2022/05/09 10:32:56;;;;;;;0.50;0.50;;;;;;;11.10;35.11;99564.59;4919052;29;20056;-87
2022/05/09 10:35:41;;;;;;;1.30;1.20;;;;;;;12.54;35.13;99566.50;4919774;29;20094;-87
2022/05/09 10:38:13;;;;;;;0.50;0.50;;;;;;;14.20;32.05;99572.97;4903525;29;20048;-87
2022/05/09 10:40:49;;;;;;;0.40;0.40;;;;;;;13.22;35.55;99578.19;4902526;29;20314;-86
2022/05/09 10:43:28;;;;;;;0.45;0.45;;;;;;;12.00;38.13;99577.69;4932189;29;20083;-86
2022/05/09 10:45:56;;;;;;;0.47;0.47;;;;;;;11.20;39.72;99559.41;4935550;29;20051;-86
2022/05/09 10:48:42;;;;;;;0.50;0.50;;;;;;;10.77;40.49;99557.84;4926919;29;20044;-85
2022/05/09 10:51:16;;;;;;;0.60;0.60;;;;;;;10.66;41.43;99564.03;4886615;29;20067;-85
2022/05/09 10:54:18;;;;;;;1.30;1.20;;;;;;;11.23;40.25;99556.25;4905177;29;20074;-87
2022/05/09 10:56:50;;;;;;;0.50;0.50;;;;;;;12.91;37.61;99571.44;4903171;29;20088;-86
2022/05/09 10:59:25;;;;;;;0.40;0.40;;;;;;;12.13;38.24;99588.22;4888783;29;20131;-85
2022/05/09 11:02:01;;;;;;;0.40;0.40;;;;;;;11.06;39.98;99581.25;4920037;29;20512;-85
2022/05/09 11:04:30;;;;;;;0.40;0.40;;;;;;;9.93;41.69;99568.56;4902459;29;20060;-85
2022/05/09 11:07:10;;;;;;;0.45;0.45;;;;;;;9.35;43.32;99602.16;4901325;29;20522;-85
2022/05/09 11:10:02;;;;;;;0.40;0.40;;;;;;;9.03;44.95;99606.78;4901962;29;20091;-85
2022/05/09 11:12:44;;;;;;;0.50;0.50;;;;;;;9.02;44.65;99616.72;4918360;29;20075;-86
2022/05/09 11:15:43;;;;;;;0.50;0.50;;;;;;;9.20;46.57;99623.22;4917283;29;20139;-86
2022/05/09 11:18:26;;;;;;;0.60;0.60;;;;;;;9.34;46.83;99622.03;4918177;29;20066;-85
2022/05/09 11:21:22;;;;;;;0.60;0.60;;;;;;;9.80;46.27;99620.75;4902250;29;20487;-85
2022/05/09 11:23:53;;;;;;;0.50;0.50;;;;;;;10.22;45.59;99637.06;4879416;29;20088;-87
2022/05/09 11:26:39;;;;;;;0.43;0.43;;;;;;;9.57;47.59;99647.53;4879604;29;20504;-86
2022/05/09 11:29:43;;;;;;;0.43;0.43;;;;;;;8.16;55.24;99693.34;4878733;29;20067;-86
2022/05/09 11:32:36;;;;;;;0.50;0.50;;;;;;;6.49;63.92;99694.34;4863241;29;20449;-87
2022/05/09 11:35:23;;;;;;;0.50;0.50;;;;;;;5.88;66.19;99689.72;4878998;29;20060;-85
2022/05/09 11:38:05;;;;;;;0.60;0.60;;;;;;;5.58;68.79;99681.06;4847966;29;20052;-85
2022/05/09 11:41:08;;;;;;;0.60;0.60;;;;;;;5.51;69.52;99699.75;4878844;29;20068;-86
2022/05/09 11:43:39;;;;;;;0.60;0.60;;;;;;;5.54;69.06;99680.63;4864490;29;20464;-87
2022/05/09 11:46:12;;;;;;;0.60;0.60;;;;;;;5.51;68.13;99674.84;4866113;29;20056;-86
2022/05/09 11:49:08;;;;;;;0.60;0.60;;;;;;;5.68;68.78;99680.72;4880301;29;20489;-88
2022/05/09 11:51:48;;;;;;;0.60;0.60;;;;;;;5.82;68.23;99679.75;4878060;29;20052;-86
2022/05/09 11:54:34;;;;;;;0.60;0.60;;;;;;;5.85;67.87;99679.41;4879649;29;20063;-86
2022/05/09 11:57:07;;;;;;;0.60;0.60;;;;;;;5.89;66.83;99667.25;4848123;29;20168;-85
2022/05/09 11:59:36;;;;;;;0.60;0.60;;;;;;;6.08;66.50;99663.06;4886437;29;20056;-84
2022/05/09 12:02:08;;;;;;;0.60;0.60;;;;;;;6.11;65.72;99653.78;4901028;29;20056;-86
2022/05/09 12:04:45;;;;;;;0.70;0.70;;;;;;;6.45;65.57;99669.78;4917346;29;20048;-86
2022/05/09 12:07:22;;;;;;;0.80;0.80;;;;;;;6.78;64.84;99666.34;4903689;29;20084;-86
2022/05/09 12:10:18;;;;;;;1.00;1.00;;;;;;;8.22;62.21;99665.59;4917716;29;20056;-85
2022/05/09 12:12:49;;;;;;;1.10;1.10;;;;;;;10.10;56.17;99650.50;4924779;29;20071;-87
2022/05/09 12:15:17;;;;;;;1.00;1.00;;;;;;;11.39;52.15;99652.81;4918865;29;20086;-86
2022/05/09 12:17:48;;;;;;;1.10;1.10;;;;;;;12.80;49.65;99641.72;4899956;29;20093;-86